Time;durP1;ratioP1;P1;durP2;ratioP2;P2;SDS_P1;SDS_P2;PMS_P1;PMS_P2;Temp;Humidity;BMP_temperature;BMP_pressure;BME280_temperature;BME280_humidity;BME280_pressure;Samples;Min_cycle;Max_cycle;Signal;HPM_P1;HPM_P2
2023/01/24 00:00:53;;;;;;;10.63;9.63;;;3.50;95.20;;;;;;5052571;28;20421;-73
2023/01/24 00:03:21;;;;;;;10.93;9.93;;;3.40;95.50;;;;;;5040713;28;20427;-75
2023/01/24 00:05:49;;;;;;;10.40;9.50;;;3.50;95.30;;;;;;5053949;28;20420;-74
2023/01/24 00:08:19;;;;;;;10.35;9.45;;;3.40;95.50;;;;;;5058406;28;20438;-73
2023/01/24 00:10:47;;;;;;;10.23;9.32;;;3.40;95.50;;;;;;5060362;28;20421;-73
2023/01/24 00:13:15;;;;;;;9.73;8.93;;;3.40;95.60;;;;;;5024067;28;20427;-73
2023/01/24 00:15:42;;;;;;;9.70;8.90;;;3.40;95.50;;;;;;5025396;28;20540;-73
2023/01/24 00:18:09;;;;;;;9.85;9.05;;;3.40;95.10;;;;;;5049451;28;20440;-74
2023/01/24 00:20:37;;;;;;;9.80;9.00;;;3.40;95.10;;;;;;5044812;28;20465;-75
2023/01/24 00:23:04;;;;;;;9.77;8.98;;;3.50;95.20;;;;;;5025793;28;20430;-73
2023/01/24 00:25:30;;;;;;;10.27;9.27;;;3.40;95.00;;;;;;5037765;28;20496;-75
2023/01/24 00:27:57;;;;;;;8.70;8.00;;;3.40;95.10;;;;;;5043929;28;20816;-73
2023/01/24 00:30:24;;;;;;;9.07;8.32;;;3.40;94.60;;;;;;5044359;28;20417;-73
2023/01/24 00:32:51;;;;;;;10.10;9.30;;;3.40;94.60;;;;;;5050778;28;20443;-73
2023/01/24 00:35:17;;;;;;;9.65;8.85;;;3.50;94.80;;;;;;5057923;28;20423;-73
2023/01/24 00:37:45;;;;;;;9.77;8.88;;;3.40;94.80;;;;;;5036939;28;20518;-73
2023/01/24 00:40:12;;;;;;;9.43;8.70;;;3.40;94.60;;;;;;5044631;28;20431;-74
2023/01/24 00:42:39;;;;;;;9.45;8.65;;;3.40;94.60;;;;;;5027945;28;21242;-73
2023/01/24 00:45:07;;;;;;;8.77;7.97;;;3.40;95.00;;;;;;5025584;28;20430;-73
2023/01/24 00:47:34;;;;;;;8.70;8.00;;;3.40;94.60;;;;;;5053583;28;20505;-74
2023/01/24 00:50:00;;;;;;;9.00;8.30;;;3.40;94.50;;;;;;5064690;28;20472;-74
2023/01/24 00:52:27;;;;;;;9.93;9.02;;;3.40;94.20;;;;;;5042886;28;20426;-75
2023/01/24 00:54:55;;;;;;;8.65;7.95;;;3.40;94.50;;;;;;5038355;28;20460;-75
2023/01/24 00:57:24;;;;;;;9.82;9.02;;;3.40;94.60;;;;;;5048892;28;20444;-72
2023/01/24 00:59:50;;;;;;;9.65;8.85;;;3.40;94.80;;;;;;5046658;28;20444;-74
2023/01/24 01:02:17;;;;;;;9.90;9.10;;;3.40;94.90;;;;;;5052297;28;20797;-73
2023/01/24 01:04:44;;;;;;;10.00;9.20;;;3.40;95.20;;;;;;5069519;28;20754;-74
2023/01/24 01:07:11;;;;;;;10.60;9.70;;;3.40;94.90;;;;;;5049495;28;20423;-73
2023/01/24 01:09:37;;;;;;;9.13;8.43;;;3.40;94.70;;;;;;5030086;28;20422;-74
2023/01/24 01:12:06;;;;;;;10.00;9.20;;;3.40;94.60;;;;;;5045555;28;20504;-73
2023/01/24 01:14:33;;;;;;;10.32;9.43;;;3.40;94.40;;;;;;5046669;28;20423;-73
2023/01/24 01:17:00;;;;;;;9.70;8.90;;;3.40;94.50;;;;;;5058962;28;20727;-73
2023/01/24 01:19:26;;;;;;;9.55;8.75;;;3.40;94.40;;;;;;5070106;28;20415;-73
2023/01/24 01:21:53;;;;;;;8.80;8.10;;;3.50;94.50;;;;;;5063904;28;20425;-73
2023/01/24 01:24:20;;;;;;;9.10;8.30;;;3.40;94.50;;;;;;5048843;28;20413;-72
2023/01/24 01:26:46;;;;;;;9.20;8.50;;;3.40;94.70;;;;;;5049304;28;20424;-73
2023/01/24 01:29:14;;;;;;;8.75;8.05;;;3.40;94.70;;;;;;5049644;28;20480;-73
2023/01/24 01:31:41;;;;;;;9.57;8.77;;;3.40;94.70;;;;;;5060245;28;20403;-73
2023/01/24 01:34:09;;;;;;;9.70;8.90;;;3.40;94.50;;;;;;5068758;28;20531;-73
2023/01/24 01:36:35;;;;;;;11.10;10.20;;;3.40;94.70;;;;;;5061742;28;20463;-74
2023/01/24 01:39:02;;;;;;;10.20;9.40;;;3.40;94.50;;;;;;5029115;28;20438;-74
2023/01/24 01:41:29;;;;;;;9.30;8.55;;;3.40;94.70;;;;;;5053527;28;20432;-73
2023/01/24 01:46:44;;;;;;;10.20;9.30;;;3.30;94.80;;;;;;5050572;28;20922;-74
2023/01/24 01:49:18;;;;;;;9.25;8.45;;;3.30;95.00;;;;;;5049013;28;20444;-74
2023/01/24 01:51:47;;;;;;;9.87;9.00;;;3.30;94.90;;;;;;5046939;28;20413;-74
2023/01/24 01:54:18;;;;;;;9.85;9.05;;;3.30;95.10;;;;;;5046540;28;20530;-74
2023/01/24 01:56:48;;;;;;;10.27;9.38;;;3.30;95.20;;;;;;5055809;28;20926;-74
2023/01/24 01:59:18;;;;;;;10.13;9.23;;;3.30;95.10;;;;;;5040444;28;20437;-74
2023/01/24 02:01:49;;;;;;;9.93;9.10;;;3.30;95.30;;;;;;5056237;28;20494;-74
2023/01/24 02:04:19;;;;;;;10.23;9.33;;;3.30;94.90;;;;;;5027414;28;20916;-74
2023/01/24 02:06:52;;;;;;;9.57;8.77;;;3.30;94.90;;;;;;5035431;28;20421;-74
2023/01/24 02:09:23;;;;;;;9.40;8.60;;;3.30;94.80;;;;;;5050398;28;20440;-74
2023/01/24 02:11:52;;;;;;;9.07;8.32;;;3.30;94.50;;;;;;5055305;28;20550;-74
2023/01/24 02:17:08;;;;;;;10.00;9.10;;;3.30;94.10;;;;;;5057541;28;20491;-75
2023/01/24 02:19:47;;;;;;;8.73;8.00;;;3.30;94.40;;;;;;5068244;28;20411;-74
2023/01/24 02:22:17;;;;;;;9.48;8.68;;;3.30;94.40;;;;;;5033121;28;20423;-73
2023/01/24 02:24:52;;;;;;;8.60;7.83;;;3.30;94.40;;;;;;5034626;28;20412;-72
2023/01/24 02:27:20;;;;;;;8.10;7.50;;;3.30;94.10;;;;;;5050842;28;20545;-73
2023/01/24 02:29:47;;;;;;;7.72;7.13;;;3.30;93.80;;;;;;5053616;28;20433;-73
2023/01/24 02:32:16;;;;;;;7.80;7.20;;;3.30;93.70;;;;;;5055912;28;20426;-74
2023/01/24 02:34:42;;;;;;;8.23;7.53;;;3.20;93.80;;;;;;5054504;28;20603;-73
2023/01/24 02:37:13;;;;;;;8.38;7.68;;;3.20;94.00;;;;;;5037034;28;20433;-74
2023/01/24 02:39:46;;;;;;;8.57;7.88;;;3.20;94.20;;;;;;5063947;28;20495;-74
2023/01/24 02:42:15;;;;;;;8.07;7.43;;;3.20;94.20;;;;;;5042213;28;20793;-73
2023/01/24 02:44:49;;;;;;;8.30;7.60;;;3.10;94.20;;;;;;5069563;28;20438;-74
2023/01/24 02:47:15;;;;;;;8.30;7.60;;;3.10;94.40;;;;;;5069553;28;20516;-73
2023/01/24 02:49:42;;;;;;;8.40;7.63;;;3.10;94.60;;;;;;5060830;28;20903;-73
2023/01/24 02:54:54;;;;;;;9.70;8.90;;;3.10;94.40;;;;;;5037606;28;20582;-74
2023/01/24 03:00:08;;;;;;;9.90;9.00;;;3.20;94.30;;;;;;5048512;28;20444;-74
2023/01/24 03:02:35;;;;;;;9.60;8.80;;;3.20;94.20;;;;;;5066691;28;20576;-75
2023/01/24 03:05:02;;;;;;;9.50;8.70;;;3.20;94.00;;;;;;5058882;28;20847;-74
2023/01/24 03:07:41;;;;;;;9.60;8.80;;;3.20;94.10;;;;;;5043284;28;20523;-74
2023/01/24 03:10:09;;;;;;;8.77;7.97;;;3.10;94.20;;;;;;5057152;28;20956;-74
2023/01/24 03:34:33;;;;;;;7.95;7.25;;;3.00;94.10;;;;;;5067349;28;20441;-74
2023/01/24 03:37:01;;;;;;;7.80;7.20;;;3.00;93.90;;;;;;5048599;28;20431;-73
2023/01/24 03:42:12;;;;;;;7.20;6.60;;;3.00;93.70;;;;;;5050461;28;20414;-74
2023/01/24 03:44:38;;;;;;;7.38;6.78;;;2.90;93.70;;;;;;5061975;28;21885;-74
2023/01/24 03:47:06;;;;;;;7.40;6.80;;;2.90;94.00;;;;;;5058333;28;20421;-74
2023/01/24 03:52:28;;;;;;;7.53;6.93;;;2.90;94.10;;;;;;5029063;28;20422;-74
2023/01/24 03:54:55;;;;;;;7.03;6.43;;;2.90;94.10;;;;;;5034628;28;20678;-74
2023/01/24 03:57:22;;;;;;;7.20;6.60;;;2.90;94.10;;;;;;5058522;28;20798;-74
2023/01/24 03:59:49;;;;;;;8.02;7.32;;;2.90;94.10;;;;;;5062700;28;20984;-74
2023/01/24 04:02:18;;;;;;;7.10;6.50;;;2.80;94.20;;;;;;5055843;28;20421;-74
2023/01/24 04:07:30;;;;;;;7.90;7.20;;;2.80;94.30;;;;;;5029677;28;20437;-74
2023/01/24 04:09:57;;;;;;;7.80;7.10;;;2.80;94.50;;;;;;5046968;28;20439;-74
2023/01/24 04:12:24;;;;;;;8.00;7.30;;;2.80;94.40;;;;;;5049497;28;20518;-74
2023/01/24 04:14:51;;;;;;;7.88;7.18;;;2.70;94.70;;;;;;5053090;28;20993;-74
2023/01/24 04:17:19;;;;;;;8.15;7.45;;;2.70;95.00;;;;;;5049890;28;20412;-74
2023/01/24 04:19:46;;;;;;;8.13;7.43;;;2.70;95.20;;;;;;5064036;28;20415;-74
2023/01/24 04:22:15;;;;;;;8.38;7.60;;;2.70;95.00;;;;;;5051410;28;20535;-74
2023/01/24 04:24:42;;;;;;;8.50;7.60;;;2.80;95.10;;;;;;5046534;28;20421;-74
2023/01/24 04:27:08;;;;;;;13.00;11.70;;;2.80;95.20;;;;;;5045385;28;20433;-74
2023/01/24 04:29:35;;;;;;;8.25;7.45;;;2.80;95.50;;;;;;5056107;28;20410;-74
2023/01/24 04:32:02;;;;;;;7.40;6.80;;;2.80;95.00;;;;;;5075699;28;20421;-74
2023/01/24 04:34:30;;;;;;;8.10;7.40;;;2.80;94.70;;;;;;5069067;28;20420;-74
2023/01/24 04:36:56;;;;;;;7.70;7.00;;;2.80;94.80;;;;;;5053682;28;20425;-74
2023/01/24 04:39:23;;;;;;;8.00;7.30;;;2.70;94.70;;;;;;5035963;28;20427;-74
2023/01/24 04:41:50;;;;;;;8.03;7.33;;;2.80;94.90;;;;;;5026383;28;20620;-74
2023/01/24 04:44:17;;;;;;;7.95;7.35;;;2.80;94.70;;;;;;5025208;28;20426;-74
2023/01/24 04:46:44;;;;;;;8.10;7.40;;;2.80;94.30;;;;;;5043720;28;20429;-74
2023/01/24 04:49:10;;;;;;;8.87;7.97;;;2.80;94.50;;;;;;5067277;28;20418;-74
2023/01/24 04:51:41;;;;;;;8.80;7.90;;;2.80;94.70;;;;;;5042888;28;20952;-74
2023/01/24 04:54:08;;;;;;;9.60;8.80;;;2.80;94.70;;;;;;5026113;28;20978;-74
2023/01/24 04:56:35;;;;;;;8.60;7.88;;;2.80;94.70;;;;;;5045159;28;20436;-74
2023/01/24 04:59:02;;;;;;;8.70;7.90;;;2.80;94.70;;;;;;5052971;28;20435;-74
2023/01/24 05:01:28;;;;;;;8.55;7.75;;;2.80;94.90;;;;;;5053595;28;20453;-74
2023/01/24 05:03:58;;;;;;;9.25;8.25;;;2.70;94.80;;;;;;5064928;28;20511;-74
2023/01/24 05:06:25;;;;;;;8.55;7.75;;;2.70;94.90;;;;;;5064904;28;20468;-74
2023/01/24 05:08:53;;;;;;;7.90;7.30;;;2.70;95.00;;;;;;5042610;28;20452;-74
2023/01/24 05:11:20;;;;;;;7.45;6.75;;;2.70;95.40;;;;;;5042447;28;20445;-74
2023/01/24 05:13:47;;;;;;;7.60;7.00;;;2.70;95.00;;;;;;5037656;28;20609;-74
2023/01/24 05:16:14;;;;;;;7.57;6.97;;;2.70;94.90;;;;;;5044334;28;20442;-74
2023/01/24 05:18:41;;;;;;;7.53;6.93;;;2.70;94.80;;;;;;5056591;28;20421;-74
2023/01/24 05:21:09;;;;;;;8.10;7.40;;;2.70;94.80;;;;;;5041243;28;20449;-74
2023/01/24 05:23:36;;;;;;;8.48;7.70;;;2.70;94.90;;;;;;5039131;28;20439;-73
2023/01/24 05:26:04;;;;;;;8.40;7.60;;;2.70;94.70;;;;;;5041307;28;20431;-73
2023/01/24 05:28:32;;;;;;;8.30;7.60;;;2.70;94.70;;;;;;5051378;28;20439;-73
2023/01/24 05:30:59;;;;;;;8.50;7.70;;;2.70;94.60;;;;;;5048961;28;20427;-73
2023/01/24 05:33:26;;;;;;;8.13;7.43;;;2.70;94.80;;;;;;5064016;28;21035;-72
2023/01/24 05:35:58;;;;;;;7.60;7.00;;;2.70;95.10;;;;;;5045634;28;20431;-73
2023/01/24 05:38:26;;;;;;;7.70;7.10;;;2.70;94.80;;;;;;5052549;28;20417;-73
2023/01/24 05:40:52;;;;;;;7.50;6.90;;;2.70;94.50;;;;;;5056283;28;20433;-74
2023/01/24 05:43:20;;;;;;;8.00;7.30;;;2.70;94.50;;;;;;5064953;28;20419;-72
2023/01/24 05:45:47;;;;;;;8.70;7.90;;;2.70;94.60;;;;;;5042067;28;20939;-72
2023/01/24 05:48:14;;;;;;;7.90;7.22;;;2.70;94.70;;;;;;5058535;28;20436;-73
2023/01/24 05:50:41;;;;;;;8.60;7.70;;;2.60;95.00;;;;;;5049143;28;20548;-74
2023/01/24 05:53:07;;;;;;;8.50;7.60;;;2.70;95.10;;;;;;5054786;28;20770;-73
2023/01/24 05:55:34;;;;;;;7.75;7.15;;;2.70;95.00;;;;;;5049828;28;20428;-75
2023/01/24 05:58:01;;;;;;;8.00;7.30;;;2.70;95.20;;;;;;5045729;28;20432;-73
2023/01/24 06:00:29;;;;;;;7.60;7.00;;;2.70;95.10;;;;;;5045793;28;20463;-73
2023/01/24 06:03:02;;;;;;;8.07;7.37;;;2.70;94.70;;;;;;5043226;28;20433;-72
2023/01/24 06:05:29;;;;;;;6.65;6.05;;;2.70;94.80;;;;;;5037277;28;21121;-72
2023/01/24 06:07:56;;;;;;;6.23;5.73;;;2.70;94.50;;;;;;5043034;28;20545;-72
2023/01/24 06:10:22;;;;;;;6.40;5.90;;;2.60;94.40;;;;;;5049783;28;20777;-72
2023/01/24 06:12:49;;;;;;;6.65;6.15;;;2.60;94.00;;;;;;5051121;28;20504;-73
2023/01/24 06:15:16;;;;;;;7.03;6.43;;;2.60;94.50;;;;;;5057021;28;20442;-73
2023/01/24 06:17:44;;;;;;;6.80;6.30;;;2.60;94.50;;;;;;5047680;28;20440;-72
2023/01/24 06:20:12;;;;;;;10.30;9.40;;;2.60;94.40;;;;;;5055718;28;20450;-72
2023/01/24 06:22:45;;;;;;;8.07;7.38;;;2.60;94.50;;;;;;5052946;28;20433;-73
2023/01/24 06:25:20;;;;;;;6.88;6.28;;;2.60;94.70;;;;;;5050554;28;20900;-73
2023/01/24 06:27:48;;;;;;;7.20;6.60;;;2.60;94.20;;;;;;5047497;28;20511;-74
2023/01/24 06:30:16;;;;;;;7.20;6.60;;;2.60;94.10;;;;;;5052034;28;20434;-75
2023/01/24 06:33:07;;;;;;;6.70;6.20;;;2.60;94.10;;;;;;5061386;28;20437;-73
2023/01/24 06:35:42;;;;;;;6.80;6.20;;;2.60;94.10;;;;;;5061196;28;20424;-74
2023/01/24 06:38:19;;;;;;;6.68;6.07;;;2.60;94.30;;;;;;5063950;28;20443;-73
2023/01/24 06:40:46;;;;;;;7.77;7.07;;;2.60;94.50;;;;;;5065707;28;20529;-74
2023/01/24 06:43:13;;;;;;;8.80;7.90;;;2.50;94.70;;;;;;5068068;28;20436;-75
2023/01/24 06:45:40;;;;;;;8.15;7.15;;;2.50;94.80;;;;;;5055521;28;20543;-73
2023/01/24 06:48:08;;;;;;;7.78;6.97;;;2.60;95.00;;;;;;5055265;28;20437;-72
2023/01/24 06:50:35;;;;;;;8.27;7.47;;;2.60;94.90;;;;;;5055306;28;20442;-73
2023/01/24 06:53:02;;;;;;;8.40;7.50;;;2.60;94.90;;;;;;5065345;28;20433;-72
2023/01/24 06:55:29;;;;;;;8.18;7.43;;;2.60;94.70;;;;;;5063264;28;20453;-74
2023/01/24 06:57:56;;;;;;;8.38;7.50;;;2.60;94.70;;;;;;5070378;28;20532;-72
2023/01/24 07:00:23;;;;;;;8.40;7.70;;;2.60;94.40;;;;;;5056336;28;20429;-75
2023/01/24 07:02:57;;;;;;;7.20;6.60;;;2.60;94.50;;;;;;5052523;28;20445;-74
2023/01/24 07:05:26;;;;;;;6.50;6.00;;;2.60;94.30;;;;;;5055558;28;20453;-74
2023/01/24 07:07:52;;;;;;;7.72;6.93;;;2.60;94.20;;;;;;5060070;28;20440;-73
2023/01/24 07:10:19;;;;;;;7.47;6.88;;;2.50;94.30;;;;;;5057350;28;20428;-73
2023/01/24 07:12:46;;;;;;;7.50;6.80;;;2.60;94.50;;;;;;5052502;28;20544;-74
2023/01/24 07:15:13;;;;;;;7.20;6.60;;;2.50;94.50;;;;;;5045200;28;20432;-75
2023/01/24 07:17:40;;;;;;;8.10;7.30;;;2.50;94.60;;;;;;5047391;28;20878;-73
2023/01/24 07:20:10;;;;;;;9.38;7.47;;;2.50;94.60;;;;;;5056897;28;20489;-73
2023/01/24 07:22:41;;;;;;;7.93;7.13;;;2.50;94.80;;;;;;5046019;28;20540;-66
2023/01/24 07:25:13;;;;;;;8.27;7.47;;;2.50;95.00;;;;;;5050402;28;20508;-72
2023/01/24 07:27:41;;;;;;;11.75;8.50;;;2.60;95.00;;;;;;5050280;28;20429;-73
2023/01/24 07:30:09;;;;;;;8.20;7.60;;;2.60;94.90;;;;;;5057032;28;20441;-72
2023/01/24 07:32:35;;;;;;;8.88;8.00;;;2.60;94.70;;;;;;5057296;28;20448;-74
2023/01/24 07:35:02;;;;;;;8.63;7.82;;;2.50;95.10;;;;;;5057638;28;20500;-74
2023/01/24 07:37:30;;;;;;;9.70;8.80;;;2.60;95.00;;;;;;5055806;28;20433;-73
2023/01/24 07:39:58;;;;;;;8.20;7.40;;;2.60;95.10;;;;;;5053607;28;21009;-72
2023/01/24 07:42:25;;;;;;;9.00;8.30;;;2.60;94.90;;;;;;5052271;28;20423;-74
2023/01/24 07:44:53;;;;;;;8.23;7.53;;;2.70;95.00;;;;;;5046926;28;20441;-72
2023/01/24 07:47:20;;;;;;;8.17;7.47;;;2.70;94.70;;;;;;5056332;28;20426;-72
2023/01/24 07:49:47;;;;;;;6.60;6.10;;;2.70;94.90;;;;;;5056877;28;20433;-72
2023/01/24 07:52:13;;;;;;;7.35;6.75;;;2.70;94.40;;;;;;5062023;28;20438;-73
2023/01/24 07:54:40;;;;;;;7.33;6.73;;;2.70;94.30;;;;;;5056471;28;20927;-72
2023/01/24 07:57:08;;;;;;;7.80;7.10;;;2.70;94.20;;;;;;5055531;28;20451;-76
2023/01/24 07:59:35;;;;;;;7.90;7.20;;;2.70;94.30;;;;;;5053066;28;20498;-73
2023/01/24 08:02:02;;;;;;;8.25;7.55;;;2.70;94.50;;;;;;5052312;28;20426;-72
2023/01/24 08:04:29;;;;;;;9.70;8.80;;;2.70;94.40;;;;;;5062548;28;20503;-73
2023/01/24 08:09:40;;;;;;;7.60;7.00;;;2.80;94.50;;;;;;5065116;28;20443;-73
2023/01/24 08:12:08;;;;;;;7.63;6.95;;;2.80;94.40;;;;;;5060280;28;20431;-74
2023/01/24 08:14:35;;;;;;;7.30;6.60;;;2.80;94.30;;;;;;5064154;28;20486;-72
2023/01/24 08:17:02;;;;;;;8.10;7.40;;;2.80;93.90;;;;;;5062480;28;20439;-72
2023/01/24 08:19:28;;;;;;;7.15;6.55;;;2.80;93.90;;;;;;5055987;28;20433;-73
2023/01/24 08:21:55;;;;;;;7.30;6.75;;;2.80;93.60;;;;;;5069044;28;20553;-72
2023/01/24 08:24:24;;;;;;;7.60;7.00;;;2.80;93.50;;;;;;5062686;28;20455;-72
2023/01/24 08:26:51;;;;;;;6.82;6.22;;;2.90;93.50;;;;;;5057400;28;20433;-72
2023/01/24 08:29:19;;;;;;;7.22;6.63;;;2.90;93.30;;;;;;5068261;28;20522;-73
2023/01/24 08:31:48;;;;;;;7.50;6.90;;;2.90;93.70;;;;;;5053272;28;20433;-72
2023/01/24 08:34:15;;;;;;;8.00;7.20;;;2.90;93.60;;;;;;5056703;28;20434;-73
2023/01/24 08:36:42;;;;;;;6.70;6.20;;;2.90;93.30;;;;;;5059269;28;20440;-73
2023/01/24 08:39:08;;;;;;;7.00;6.50;;;2.90;93.00;;;;;;5058389;28;20955;-73
2023/01/24 08:41:35;;;;;;;6.95;6.45;;;2.90;93.20;;;;;;5055186;28;20439;-73
2023/01/24 08:44:02;;;;;;;7.97;7.30;;;2.90;93.20;;;;;;5057177;28;20516;-72
2023/01/24 08:46:31;;;;;;;8.30;7.50;;;3.00;93.00;;;;;;5053809;28;20477;-73
2023/01/24 08:48:58;;;;;;;9.40;8.60;;;3.00;93.40;;;;;;5058546;28;20429;-73
2023/01/24 08:51:25;;;;;;;8.30;7.60;;;3.10;93.50;;;;;;5061909;28;20437;-73
2023/01/24 08:53:51;;;;;;;8.35;7.55;;;3.10;93.50;;;;;;5057283;28;20428;-73
2023/01/24 08:56:18;;;;;;;7.30;6.70;;;3.20;93.30;;;;;;5053400;28;20435;-73
2023/01/24 08:58:45;;;;;;;7.32;6.72;;;3.20;92.80;;;;;;5057615;28;20437;-73
2023/01/24 09:01:12;;;;;;;7.68;7.07;;;3.20;92.50;;;;;;5055332;28;20430;-73
2023/01/24 09:03:40;;;;;;;7.90;7.20;;;3.20;92.70;;;;;;5066857;28;20413;-75
2023/01/24 09:06:07;;;;;;;8.00;7.30;;;3.30;92.60;;;;;;5058446;28;20999;-73
2023/01/24 09:08:36;;;;;;;7.47;6.88;;;3.30;92.20;;;;;;5057834;28;20416;-73
2023/01/24 09:11:03;;;;;;;6.78;6.18;;;3.30;92.70;;;;;;5061914;28;20429;-73
2023/01/24 09:13:31;;;;;;;7.10;6.60;;;3.40;92.10;;;;;;5053346;28;20428;-73
2023/01/24 09:15:58;;;;;;;7.78;7.07;;;3.40;92.00;;;;;;5052784;28;20433;-74
2023/01/24 09:18:26;;;;;;;9.55;8.68;;;3.40;92.00;;;;;;5051681;28;20436;-74
2023/01/24 09:20:54;;;;;;;8.00;7.30;;;3.50;92.10;;;;;;5053066;28;21287;-75
2023/01/24 09:23:21;;;;;;;8.10;7.30;;;3.50;91.90;;;;;;5052210;28;20505;-74
2023/01/24 09:25:52;;;;;;;8.67;7.77;;;3.60;91.90;;;;;;5058060;28;20433;-74
2023/01/24 09:28:20;;;;;;;8.90;8.10;;;3.70;91.90;;;;;;5057625;28;20450;-73
2023/01/24 09:30:47;;;;;;;7.60;7.10;;;3.60;91.90;;;;;;5056142;28;20420;-74
2023/01/24 09:33:15;;;;;;;7.60;6.97;;;3.60;91.10;;;;;;5051648;28;20428;-73
2023/01/24 09:35:41;;;;;;;7.88;7.28;;;3.60;91.30;;;;;;5051841;28;20524;-73
2023/01/24 09:38:09;;;;;;;7.93;7.32;;;3.60;91.80;;;;;;5047726;28;20551;-73
2023/01/24 09:40:44;;;;;;;8.47;7.87;;;3.70;91.50;;;;;;5055670;28;20435;-74
2023/01/24 09:43:16;;;;;;;7.75;7.15;;;3.70;91.10;;;;;;5054826;28;20434;-73
2023/01/24 09:45:52;;;;;;;7.80;7.20;;;3.70;91.10;;;;;;5048739;28;20437;-74
2023/01/24 09:48:21;;;;;;;7.90;7.20;;;3.80;91.30;;;;;;5053113;28;20435;-73
2023/01/24 09:50:51;;;;;;;8.85;7.95;;;3.80;91.00;;;;;;5057263;28;20456;-73
2023/01/24 09:53:25;;;;;;;8.70;7.80;;;3.90;90.90;;;;;;5054609;28;20923;-72
2023/01/24 09:55:52;;;;;;;17.77;16.17;;;3.90;90.80;;;;;;5046667;28;20445;-73
2023/01/24 09:58:31;;;;;;;8.90;8.00;;;4.00;91.00;;;;;;5054106;28;20433;-73
2023/01/24 10:01:01;;;;;;;8.60;7.80;;;4.00;90.30;;;;;;5049178;28;20444;-74
2023/01/24 10:03:28;;;;;;;7.57;6.97;;;4.00;90.20;;;;;;5047341;28;20440;-73
2023/01/24 10:05:58;;;;;;;8.10;7.40;;;4.10;90.00;;;;;;5047891;28;22048;-74
2023/01/24 10:08:35;;;;;;;7.40;6.90;;;4.00;90.00;;;;;;5052995;28;20433;-75
2023/01/24 10:11:16;;;;;;;6.93;6.43;;;4.00;90.00;;;;;;5050633;28;20433;-74
2023/01/24 10:14:20;;;;;;;6.82;6.32;;;4.00;90.00;;;;;;5051142;28;20437;-75
2023/01/24 10:17:24;;;;;;;6.65;6.15;;;4.00;89.30;;;;;;5051194;28;20499;-76
2023/01/24 10:20:15;;;;;;;7.10;6.60;;;4.00;89.10;;;;;;5051826;28;20473;-76
2023/01/24 10:23:00;;;;;;;7.80;7.20;;;4.00;88.60;;;;;;5054030;28;20444;-75
2023/01/24 10:25:33;;;;;;;8.50;7.80;;;3.90;89.60;;;;;;5055375;28;20443;-73
2023/01/24 10:28:02;;;;;;;9.52;8.70;;;3.90;90.10;;;;;;5049266;28;20899;-76
2023/01/24 10:30:35;;;;;;;9.13;8.23;;;4.00;90.40;;;;;;5043609;28;20518;-74
2023/01/24 10:33:06;;;;;;;9.52;8.73;;;4.00;90.30;;;;;;5045946;28;20441;-76
2023/01/24 10:35:40;;;;;;;10.20;9.20;;;4.00;90.50;;;;;;5053173;28;20433;-74
2023/01/24 10:38:12;;;;;;;9.95;9.10;;;4.00;90.50;;;;;;5057535;28;20437;-75
2023/01/24 10:40:51;;;;;;;10.10;9.30;;;4.10;90.40;;;;;;5056428;28;20505;-75
2023/01/24 10:43:18;;;;;;;11.65;10.60;;;4.10;90.20;;;;;;5045563;28;20514;-76
2023/01/24 10:45:53;;;;;;;9.57;8.77;;;4.10;90.20;;;;;;5052727;28;20425;-74
2023/01/24 10:48:35;;;;;;;9.90;8.90;;;4.10;90.40;;;;;;5048735;28;20439;-76
2023/01/24 10:51:12;;;;;;;9.80;8.80;;;4.20;90.50;;;;;;5056353;28;20433;-76
2023/01/24 10:53:38;;;;;;;9.90;8.97;;;4.20;90.10;;;;;;5041588;28;20429;-75
2023/01/24 10:56:07;;;;;;;9.63;8.48;;;4.30;89.60;;;;;;5056043;28;20440;-76
2023/01/24 10:58:37;;;;;;;10.48;9.40;;;4.30;89.50;;;;;;5037691;28;20478;-75
2023/01/24 11:01:07;;;;;;;10.02;9.13;;;4.30;89.80;;;;;;5042495;28;20436;-74
2023/01/24 11:03:38;;;;;;;11.82;10.73;;;4.40;89.90;;;;;;5048172;28;20850;-75
2023/01/24 11:06:05;;;;;;;9.77;8.80;;;4.40;90.00;;;;;;5049885;28;20425;-75
2023/01/24 11:08:35;;;;;;;9.30;8.40;;;4.40;88.80;;;;;;5050280;28;20504;-76
2023/01/24 11:11:02;;;;;;;9.88;8.98;;;4.40;88.00;;;;;;5056411;28;20433;-77
2023/01/24 11:13:36;;;;;;;11.40;10.40;;;4.40;88.10;;;;;;5056882;28;20428;-78
2023/01/24 11:16:05;;;;;;;8.90;8.00;;;4.50;88.50;;;;;;5052322;28;20802;-76
2023/01/24 11:18:34;;;;;;;8.80;8.00;;;4.50;88.30;;;;;;5060215;28;20542;-78
2023/01/24 11:21:10;;;;;;;9.20;8.40;;;4.50;87.80;;;;;;5052533;28;20444;-78
2023/01/24 11:23:37;;;;;;;9.98;9.18;;;4.50;87.80;;;;;;5056041;28;20463;-78
2023/01/24 11:26:06;;;;;;;10.10;9.30;;;4.50;88.40;;;;;;5045443;28;20444;-77
2023/01/24 11:28:36;;;;;;;8.90;8.20;;;4.50;88.10;;;;;;5046115;28;20432;-76
2023/01/24 11:31:06;;;;;;;8.63;8.02;;;4.50;87.70;;;;;;5050711;28;20882;-78
2023/01/24 11:34:01;;;;;;;9.00;8.20;;;4.50;87.30;;;;;;5045934;28;21142;-78
2023/01/24 11:36:41;;;;;;;8.45;7.80;;;4.50;87.10;;;;;;5048299;28;20419;-78
2023/01/24 11:39:16;;;;;;;8.93;8.13;;;4.50;87.00;;;;;;5047072;28;20428;-77
2023/01/24 11:41:51;;;;;;;9.33;8.53;;;4.60;86.70;;;;;;5055411;28;20482;-78
2023/01/24 11:44:45;;;;;;;8.43;7.82;;;4.60;87.50;;;;;;5042923;28;20445;-76
2023/01/24 11:47:16;;;;;;;9.20;8.40;;;4.70;86.70;;;;;;5047533;28;20437;-77
2023/01/24 11:50:03;;;;;;;8.50;7.80;;;4.60;86.70;;;;;;5046354;28;20736;-76
2023/01/24 11:52:53;;;;;;;9.07;8.38;;;4.60;86.40;;;;;;5050590;28;20495;-74
2023/01/24 11:55:34;;;;;;;7.70;7.10;;;4.60;86.20;;;;;;5050178;28;20431;-74
2023/01/24 11:58:26;;;;;;;8.30;7.70;;;4.60;86.90;;;;;;5056289;28;20468;-75
2023/01/24 12:01:02;;;;;;;8.27;7.67;;;4.60;86.40;;;;;;5045295;28;20914;-76
2023/01/24 12:03:48;;;;;;;7.88;7.18;;;4.60;86.90;;;;;;5048347;28;20536;-78
2023/01/24 12:06:29;;;;;;;9.10;7.60;;;4.70;86.70;;;;;;5051480;28;20442;-75
2023/01/24 12:09:08;;;;;;;8.40;7.70;;;4.70;86.40;;;;;;5050343;28;20414;-78
2023/01/24 12:11:39;;;;;;;8.98;8.18;;;4.70;86.00;;;;;;5049565;28;20428;-79
2023/01/24 12:14:41;;;;;;;8.15;7.55;;;4.80;85.60;;;;;;5050923;28;20489;-78
2023/01/24 12:17:23;;;;;;;9.73;8.93;;;4.70;84.50;;;;;;5014774;28;20527;-78
2023/01/24 12:20:07;;;;;;;8.02;7.32;;;4.60;85.00;;;;;;5042963;28;20436;-77
2023/01/24 12:22:35;;;;;;;8.27;7.57;;;4.50;85.30;;;;;;5049239;28;20487;-78
2023/01/24 12:25:12;;;;;;;7.80;7.30;;;4.40;86.10;;;;;;5058289;28;20421;-76
2023/01/24 12:27:41;;;;;;;8.17;7.50;;;4.50;86.30;;;;;;5044416;28;20521;-76
2023/01/24 12:30:16;;;;;;;7.40;6.90;;;4.50;85.70;;;;;;5043253;28;20432;-78
2023/01/24 12:32:49;;;;;;;7.63;7.13;;;4.50;85.60;;;;;;5045576;28;20596;-77
2023/01/24 12:35:23;;;;;;;8.07;7.47;;;4.50;85.40;;;;;;5040556;28;20514;-76
2023/01/24 12:37:54;;;;;;;7.63;7.03;;;4.60;85.70;;;;;;5053739;28;20772;-78
2023/01/24 12:40:27;;;;;;;7.60;7.00;;;4.70;85.80;;;;;;5042450;28;20425;-77
2023/01/24 12:42:59;;;;;;;7.57;7.07;;;4.70;84.80;;;;;;5043355;28;20440;-77
2023/01/24 12:45:33;;;;;;;7.30;6.70;;;4.70;84.30;;;;;;5047352;28;20911;-78
2023/01/24 12:48:06;;;;;;;7.68;7.07;;;4.60;83.80;;;;;;5056679;28;20508;-76
2023/01/24 12:50:41;;;;;;;7.80;7.20;;;4.60;84.70;;;;;;5047170;28;20517;-78
2023/01/24 12:53:18;;;;;;;8.70;7.97;;;4.60;85.20;;;;;;5053208;28;20431;-77
2023/01/24 12:55:58;;;;;;;8.45;7.75;;;4.50;85.40;;;;;;5051860;28;20433;-79
2023/01/24 12:58:28;;;;;;;7.70;7.10;;;4.50;85.50;;;;;;5048521;28;20444;-79
2023/01/24 13:01:14;;;;;;;8.03;7.33;;;4.50;85.60;;;;;;5049956;28;20448;-78
2023/01/24 13:04:01;;;;;;;8.82;8.10;;;4.60;85.70;;;;;;5048552;28;20450;-79
2023/01/24 13:06:38;;;;;;;8.70;8.00;;;4.70;85.50;;;;;;5050851;28;20421;-79
2023/01/24 13:09:14;;;;;;;8.68;7.97;;;4.70;85.00;;;;;;5054250;28;20436;-79
2023/01/24 13:11:46;;;;;;;8.60;7.90;;;4.70;84.60;;;;;;5050467;28;20429;-80
2023/01/24 13:14:22;;;;;;;8.70;7.90;;;4.70;84.60;;;;;;5051736;28;20432;-80
2023/01/24 13:17:15;;;;;;;8.90;8.20;;;4.70;85.20;;;;;;5062181;28;20413;-79
2023/01/24 13:20:12;;;;;;;8.60;7.90;;;4.70;85.80;;;;;;5069519;28;20438;-79
2023/01/24 13:22:51;;;;;;;8.65;8.05;;;4.60;84.40;;;;;;5064800;28;20432;-80
2023/01/24 13:25:35;;;;;;;8.70;8.00;;;4.60;84.30;;;;;;5054514;28;20458;-79
2023/01/24 13:28:12;;;;;;;8.53;7.93;;;4.40;85.60;;;;;;5046970;28;20425;-77
2023/01/24 13:30:47;;;;;;;8.40;7.80;;;4.30;85.90;;;;;;5043566;28;20446;-79
2023/01/24 13:33:18;;;;;;;8.52;7.93;;;4.30;86.70;;;;;;5050598;28;20423;-80
2023/01/24 13:35:52;;;;;;;7.95;7.35;;;4.30;86.30;;;;;;5042744;28;20525;-79
2023/01/24 13:38:24;;;;;;;8.10;7.40;;;4.30;86.40;;;;;;5045643;28;20437;-79
2023/01/24 13:41:00;;;;;;;8.70;8.00;;;4.30;87.60;;;;;;5042922;28;21202;-77
2023/01/24 13:43:59;;;;;;;8.88;8.27;;;4.30;86.40;;;;;;5048130;28;20864;-75
2023/01/24 13:46:58;;;;;;;9.38;8.57;;;4.20;86.80;;;;;;5042997;28;20776;-80
2023/01/24 13:49:40;;;;;;;8.20;7.60;;;4.30;87.10;;;;;;5040526;28;20632;-78
2023/01/24 13:52:44;;;;;;;8.30;7.70;;;4.20;86.70;;;;;;5042040;28;20425;-76
2023/01/24 13:55:51;;;;;;;8.10;7.50;;;4.20;87.50;;;;;;5044472;28;20429;-76
2023/01/24 13:58:27;;;;;;;8.25;7.57;;;4.20;87.30;;;;;;5046186;28;20427;-74